sensor_id;sensor_type;location;lat;lon;timestamp;temperature;humidity
11704;DHT22;5908;51.354;7.458;2023-11-21T00:00:01;10.20;99.90
11704;DHT22;5908;51.354;7.458;2023-11-21T00:02:29;10.40;99.90
11704;DHT22;5908;51.354;7.458;2023-11-21T00:04:56;10.50;99.90
11704;DHT22;5908;51.354;7.458;2023-11-21T00:07:22;10.60;99.90
11704;DHT22;5908;51.354;7.458;2023-11-21T00:09:49;10.60;99.90
11704;DHT22;5908;51.354;7.458;2023-11-21T00:12:16;10.70;99.90
11704;DHT22;5908;51.354;7.458;2023-11-21T00:14:43;10.70;99.90
11704;DHT22;5908;51.354;7.458;2023-11-21T00:17:10;10.80;99.90
11704;DHT22;5908;51.354;7.458;2023-11-21T00:19:38;10.80;99.90
11704;DHT22;5908;51.354;7.458;2023-11-21T00:22:05;10.80;99.90
11704;DHT22;5908;51.354;7.458;2023-11-21T00:24:32;10.80;99.90
11704;DHT22;5908;51.354;7.458;2023-11-21T00:26:59;10.80;99.90
11704;DHT22;5908;51.354;7.458;2023-11-21T00:29:26;10.90;99.90
11704;DHT22;5908;51.354;7.458;2023-11-21T00:31:52;10.90;99.90
11704;DHT22;5908;51.354;7.458;2023-11-21T00:34:19;11.00;99.90
11704;DHT22;5908;51.354;7.458;2023-11-21T00:36:48;11.00;99.90
11704;DHT22;5908;51.354;7.458;2023-11-21T00:39:14;11.00;99.90
11704;DHT22;5908;51.354;7.458;2023-11-21T00:41:41;11.00;99.90
11704;DHT22;5908;51.354;7.458;2023-11-21T00:44:10;11.00;99.90
11704;DHT22;5908;51.354;7.458;2023-11-21T00:46:36;10.90;99.90
11704;DHT22;5908;51.354;7.458;2023-11-21T00:49:03;10.80;99.90
11704;DHT22;5908;51.354;7.458;2023-11-21T00:51:30;10.70;99.90
11704;DHT22;5908;51.354;7.458;2023-11-21T00:53:58;10.60;99.90
11704;DHT22;5908;51.354;7.458;2023-11-21T00:56:25;10.60;99.90
11704;DHT22;5908;51.354;7.458;2023-11-21T00:58:52;10.60;99.90
11704;DHT22;5908;51.354;7.458;2023-11-21T01:01:20;10.50;99.90
11704;DHT22;5908;51.354;7.458;2023-11-21T01:03:47;10.50;99.90
11704;DHT22;5908;51.354;7.458;2023-11-21T01:06:14;10.60;99.90
11704;DHT22;5908;51.354;7.458;2023-11-21T01:08:41;10.70;99.90
11704;DHT22;5908;51.354;7.458;2023-11-21T01:11:09;10.70;99.90
11704;DHT22;5908;51.354;7.458;2023-11-21T01:13:38;10.80;99.90
11704;DHT22;5908;51.354;7.458;2023-11-21T01:16:05;10.90;99.90
11704;DHT22;5908;51.354;7.458;2023-11-21T01:18:32;10.90;99.90
11704;DHT22;5908;51.354;7.458;2023-11-21T01:21:00;11.00;99.90
11704;DHT22;5908;51.354;7.458;2023-11-21T01:23:27;11.00;99.90
11704;DHT22;5908;51.354;7.458;2023-11-21T01:25:56;11.00;99.90
11704;DHT22;5908;51.354;7.458;2023-11-21T01:28:24;11.00;99.90
11704;DHT22;5908;51.354;7.458;2023-11-21T01:30:51;11.00;99.90
11704;DHT22;5908;51.354;7.458;2023-11-21T01:33:21;11.10;99.90
11704;DHT22;5908;51.354;7.458;2023-11-21T01:35:50;11.20;99.90
11704;DHT22;5908;51.354;7.458;2023-11-21T01:38:18;11.20;99.90
11704;DHT22;5908;51.354;7.458;2023-11-21T01:40:45;11.20;99.90
11704;DHT22;5908;51.354;7.458;2023-11-21T01:43:12;11.20;99.90
11704;DHT22;5908;51.354;7.458;2023-11-21T01:45:40;11.20;99.90
11704;DHT22;5908;51.354;7.458;2023-11-21T01:48:07;11.30;99.90
11704;DHT22;5908;51.354;7.458;2023-11-21T01:50:34;11.30;99.90
11704;DHT22;5908;51.354;7.458;2023-11-21T01:53:01;11.30;99.90
11704;DHT22;5908;51.354;7.458;2023-11-21T01:55:28;11.20;99.90
11704;DHT22;5908;51.354;7.458;2023-11-21T01:57:56;11.20;99.90
11704;DHT22;5908;51.354;7.458;2023-11-21T02:00:23;11.20;99.90
11704;DHT22;5908;51.354;7.458;2023-11-21T02:02:52;11.20;99.90
11704;DHT22;5908;51.354;7.458;2023-11-21T02:05:19;11.30;99.90
11704;DHT22;5908;51.354;7.458;2023-11-21T02:07:47;11.30;99.90
11704;DHT22;5908;51.354;7.458;2023-11-21T02:10:14;11.20;99.90
11704;DHT22;5908;51.354;7.458;2023-11-21T02:12:41;11.20;99.90
11704;DHT22;5908;51.354;7.458;2023-11-21T02:15:10;11.10;99.90
11704;DHT22;5908;51.354;7.458;2023-11-21T02:17:40;11.20;99.90
11704;DHT22;5908;51.354;7.458;2023-11-21T02:20:11;11.20;99.90
11704;DHT22;5908;51.354;7.458;2023-11-21T02:22:41;11.10;99.90
11704;DHT22;5908;51.354;7.458;2023-11-21T02:25:10;11.10;99.90
11704;DHT22;5908;51.354;7.458;2023-11-21T02:27:36;11.10;99.90
11704;DHT22;5908;51.354;7.458;2023-11-21T02:30:04;11.10;99.90
11704;DHT22;5908;51.354;7.458;2023-11-21T02:32:33;11.10;99.90
11704;DHT22;5908;51.354;7.458;2023-11-21T02:35:00;11.10;99.90
11704;DHT22;5908;51.354;7.458;2023-11-21T02:37:28;11.10;99.90
11704;DHT22;5908;51.354;7.458;2023-11-21T02:39:54;11.20;99.90
11704;DHT22;5908;51.354;7.458;2023-11-21T02:42:23;11.20;99.90
11704;DHT22;5908;51.354;7.458;2023-11-21T02:44:49;11.10;99.90
11704;DHT22;5908;51.354;7.458;2023-11-21T02:47:16;11.10;99.90
11704;DHT22;5908;51.354;7.458;2023-11-21T02:49:43;11.10;99.90
11704;DHT22;5908;51.354;7.458;2023-11-21T02:52:09;11.10;99.90
11704;DHT22;5908;51.354;7.458;2023-11-21T02:54:36;11.10;99.90
11704;DHT22;5908;51.354;7.458;2023-11-21T02:57:03;11.00;99.90
11704;DHT22;5908;51.354;7.458;2023-11-21T02:59:32;10.90;99.90
11704;DHT22;5908;51.354;7.458;2023-11-21T03:01:59;10.90;99.90
11704;DHT22;5908;51.354;7.458;2023-11-21T03:04:26;10.90;99.90
11704;DHT22;5908;51.354;7.458;2023-11-21T03:06:53;10.90;99.90
11704;DHT22;5908;51.354;7.458;2023-11-21T03:09:19;10.90;99.90
11704;DHT22;5908;51.354;7.458;2023-11-21T03:11:46;10.90;99.90
11704;DHT22;5908;51.354;7.458;2023-11-21T03:14:13;10.90;99.90
11704;DHT22;5908;51.354;7.458;2023-11-21T03:16:41;11.00;99.90
11704;DHT22;5908;51.354;7.458;2023-11-21T03:19:10;11.00;99.90
11704;DHT22;5908;51.354;7.458;2023-11-21T03:21:37;11.00;99.90
11704;DHT22;5908;51.354;7.458;2023-11-21T03:24:04;11.00;99.90
11704;DHT22;5908;51.354;7.458;2023-11-21T03:26:32;11.00;99.90
11704;DHT22;5908;51.354;7.458;2023-11-21T03:28:59;11.00;99.90
11704;DHT22;5908;51.354;7.458;2023-11-21T03:31:26;11.00;99.90
11704;DHT22;5908;51.354;7.458;2023-11-21T03:33:54;11.00;99.90
11704;DHT22;5908;51.354;7.458;2023-11-21T03:36:21;11.10;99.90
11704;DHT22;5908;51.354;7.458;2023-11-21T03:38:48;11.10;99.90
11704;DHT22;5908;51.354;7.458;2023-11-21T03:41:15;11.10;99.90
11704;DHT22;5908;51.354;7.458;2023-11-21T03:43:42;11.10;99.90
11704;DHT22;5908;51.354;7.458;2023-11-21T03:46:08;11.10;99.90
11704;DHT22;5908;51.354;7.458;2023-11-21T03:48:35;11.10;99.90
11704;DHT22;5908;51.354;7.458;2023-11-21T03:51:04;11.20;99.90
11704;DHT22;5908;51.354;7.458;2023-11-21T03:53:30;11.10;99.90
11704;DHT22;5908;51.354;7.458;2023-11-21T03:55:57;11.10;99.90
11704;DHT22;5908;51.354;7.458;2023-11-21T03:58:24;11.00;99.90
11704;DHT22;5908;51.354;7.458;2023-11-21T04:00:51;11.00;99.90
11704;DHT22;5908;51.354;7.458;2023-11-21T04:03:18;11.00;99.90
11704;DHT22;5908;51.354;7.458;2023-11-21T04:05:45;11.00;99.90
11704;DHT22;5908;51.354;7.458;2023-11-21T04:08:14;11.00;99.90
11704;DHT22;5908;51.354;7.458;2023-11-21T04:10:40;11.10;99.90
11704;DHT22;5908;51.354;7.458;2023-11-21T04:13:07;11.10;99.90
11704;DHT22;5908;51.354;7.458;2023-11-21T04:15:34;11.10;99.90
11704;DHT22;5908;51.354;7.458;2023-11-21T04:18:01;11.10;99.90
11704;DHT22;5908;51.354;7.458;2023-11-21T04:20:28;11.20;99.90
11704;DHT22;5908;51.354;7.458;2023-11-21T04:22:55;11.20;99.90
11704;DHT22;5908;51.354;7.458;2023-11-21T04:25:23;11.20;99.90
11704;DHT22;5908;51.354;7.458;2023-11-21T04:27:50;11.30;99.90
11704;DHT22;5908;51.354;7.458;2023-11-21T04:30:16;11.30;99.90
11704;DHT22;5908;51.354;7.458;2023-11-21T04:32:43;11.20;99.90
11704;DHT22;5908;51.354;7.458;2023-11-21T04:35:10;11.20;99.90
11704;DHT22;5908;51.354;7.458;2023-11-21T04:37:37;11.20;99.90
11704;DHT22;5908;51.354;7.458;2023-11-21T04:40:04;11.20;99.90
11704;DHT22;5908;51.354;7.458;2023-11-21T04:42:35;11.20;99.90
11704;DHT22;5908;51.354;7.458;2023-11-21T04:45:02;11.20;99.90
11704;DHT22;5908;51.354;7.458;2023-11-21T04:47:33;11.20;99.90
11704;DHT22;5908;51.354;7.458;2023-11-21T04:49:59;11.20;99.90
11704;DHT22;5908;51.354;7.458;2023-11-21T04:52:26;11.20;99.90
11704;DHT22;5908;51.354;7.458;2023-11-21T04:54:53;11.30;99.90
11704;DHT22;5908;51.354;7.458;2023-11-21T04:57:20;11.30;99.90
11704;DHT22;5908;51.354;7.458;2023-11-21T04:59:49;11.30;99.90
11704;DHT22;5908;51.354;7.458;2023-11-21T05:02:16;11.20;99.90
11704;DHT22;5908;51.354;7.458;2023-11-21T05:04:44;11.20;99.90
11704;DHT22;5908;51.354;7.458;2023-11-21T05:07:11;11.30;99.90
11704;DHT22;5908;51.354;7.458;2023-11-21T05:09:41;11.30;99.90
11704;DHT22;5908;51.354;7.458;2023-11-21T05:12:09;11.30;99.90
11704;DHT22;5908;51.354;7.458;2023-11-21T05:14:37;11.40;99.90
11704;DHT22;5908;51.354;7.458;2023-11-21T05:17:05;11.30;99.90
11704;DHT22;5908;51.354;7.458;2023-11-21T05:19:33;11.20;99.90
11704;DHT22;5908;51.354;7.458;2023-11-21T05:22:00;11.20;99.90
11704;DHT22;5908;51.354;7.458;2023-11-21T05:24:27;11.10;99.90
11704;DHT22;5908;51.354;7.458;2023-11-21T05:26:54;11.10;99.90
11704;DHT22;5908;51.354;7.458;2023-11-21T05:29:21;11.00;99.90
11704;DHT22;5908;51.354;7.458;2023-11-21T05:31:48;10.90;99.90
11704;DHT22;5908;51.354;7.458;2023-11-21T05:34:16;10.90;99.90
11704;DHT22;5908;51.354;7.458;2023-11-21T05:36:43;10.80;99.90
11704;DHT22;5908;51.354;7.458;2023-11-21T05:39:11;10.70;99.90
11704;DHT22;5908;51.354;7.458;2023-11-21T05:41:37;10.70;99.90
11704;DHT22;5908;51.354;7.458;2023-11-21T05:44:04;10.70;99.90
11704;DHT22;5908;51.354;7.458;2023-11-21T05:46:31;10.70;99.90
11704;DHT22;5908;51.354;7.458;2023-11-21T05:48:58;10.70;99.90
11704;DHT22;5908;51.354;7.458;2023-11-21T05:51:26;10.70;99.90
11704;DHT22;5908;51.354;7.458;2023-11-21T05:53:53;10.70;99.90
11704;DHT22;5908;51.354;7.458;2023-11-21T05:56:20;10.60;99.90
11704;DHT22;5908;51.354;7.458;2023-11-21T05:58:47;10.60;99.90
11704;DHT22;5908;51.354;7.458;2023-11-21T06:01:14;10.60;99.90
11704;DHT22;5908;51.354;7.458;2023-11-21T06:03:41;10.70;99.90
11704;DHT22;5908;51.354;7.458;2023-11-21T06:06:08;10.70;99.90
11704;DHT22;5908;51.354;7.458;2023-11-21T06:08:36;10.70;99.90
11704;DHT22;5908;51.354;7.458;2023-11-21T06:11:02;10.70;99.90
11704;DHT22;5908;51.354;7.458;2023-11-21T06:13:29;10.70;99.90
11704;DHT22;5908;51.354;7.458;2023-11-21T06:15:56;10.80;99.90
11704;DHT22;5908;51.354;7.458;2023-11-21T06:18:23;10.70;99.90
11704;DHT22;5908;51.354;7.458;2023-11-21T06:20:49;10.70;99.90
11704;DHT22;5908;51.354;7.458;2023-11-21T06:23:18;10.70;99.90
11704;DHT22;5908;51.354;7.458;2023-11-21T06:25:46;10.70;99.90
11704;DHT22;5908;51.354;7.458;2023-11-21T06:28:14;10.80;99.90
11704;DHT22;5908;51.354;7.458;2023-11-21T06:30:43;10.80;99.90
11704;DHT22;5908;51.354;7.458;2023-11-21T06:33:10;10.80;99.90
11704;DHT22;5908;51.354;7.458;2023-11-21T06:35:37;10.90;99.90
11704;DHT22;5908;51.354;7.458;2023-11-21T06:38:05;10.90;99.90
11704;DHT22;5908;51.354;7.458;2023-11-21T06:40:32;10.90;99.90
11704;DHT22;5908;51.354;7.458;2023-11-21T06:43:01;11.00;99.90
11704;DHT22;5908;51.354;7.458;2023-11-21T06:45:28;11.00;99.90
11704;DHT22;5908;51.354;7.458;2023-11-21T06:47:54;11.10;99.90
11704;DHT22;5908;51.354;7.458;2023-11-21T06:50:21;11.00;99.90
11704;DHT22;5908;51.354;7.458;2023-11-21T06:52:48;10.90;99.90
11704;DHT22;5908;51.354;7.458;2023-11-21T06:55:15;11.00;99.90
11704;DHT22;5908;51.354;7.458;2023-11-21T06:57:42;11.00;99.90
11704;DHT22;5908;51.354;7.458;2023-11-21T07:00:12;11.00;99.90
11704;DHT22;5908;51.354;7.458;2023-11-21T07:02:40;10.90;99.90
11704;DHT22;5908;51.354;7.458;2023-11-21T07:05:07;10.90;99.90
11704;DHT22;5908;51.354;7.458;2023-11-21T07:07:34;11.00;99.90
11704;DHT22;5908;51.354;7.458;2023-11-21T07:10:02;11.00;99.90
11704;DHT22;5908;51.354;7.458;2023-11-21T07:14:56;11.20;99.90
11704;DHT22;5908;51.354;7.458;2023-11-21T07:17:24;11.20;99.90
11704;DHT22;5908;51.354;7.458;2023-11-21T07:19:51;11.30;99.90
11704;DHT22;5908;51.354;7.458;2023-11-21T07:22:18;11.40;99.90
11704;DHT22;5908;51.354;7.458;2023-11-21T07:24:48;11.40;99.90
11704;DHT22;5908;51.354;7.458;2023-11-21T07:27:15;11.50;99.90
11704;DHT22;5908;51.354;7.458;2023-11-21T07:29:42;11.50;99.90
11704;DHT22;5908;51.354;7.458;2023-11-21T07:32:09;11.40;99.90
11704;DHT22;5908;51.354;7.458;2023-11-21T07:34:37;11.40;99.90
11704;DHT22;5908;51.354;7.458;2023-11-21T07:37:04;11.40;99.90
11704;DHT22;5908;51.354;7.458;2023-11-21T07:39:30;11.50;99.90
11704;DHT22;5908;51.354;7.458;2023-11-21T07:41:57;11.60;99.90
11704;DHT22;5908;51.354;7.458;2023-11-21T07:44:24;11.60;99.90
11704;DHT22;5908;51.354;7.458;2023-11-21T07:46:51;11.70;99.90
11704;DHT22;5908;51.354;7.458;2023-11-21T07:49:22;11.80;99.90
11704;DHT22;5908;51.354;7.458;2023-11-21T07:51:51;11.90;99.90
11704;DHT22;5908;51.354;7.458;2023-11-21T07:54:18;12.10;99.90
11704;DHT22;5908;51.354;7.458;2023-11-21T07:56:45;12.10;99.90
11704;DHT22;5908;51.354;7.458;2023-11-21T07:59:11;12.20;99.90
11704;DHT22;5908;51.354;7.458;2023-11-21T08:01:39;12.20;99.90
11704;DHT22;5908;51.354;7.458;2023-11-21T08:04:08;12.30;99.90
11704;DHT22;5908;51.354;7.458;2023-11-21T08:06:35;12.30;99.90
11704;DHT22;5908;51.354;7.458;2023-11-21T08:09:03;12.30;99.90
11704;DHT22;5908;51.354;7.458;2023-11-21T08:11:30;12.30;99.90
11704;DHT22;5908;51.354;7.458;2023-11-21T08:13:58;12.30;99.90
11704;DHT22;5908;51.354;7.458;2023-11-21T08:16:25;12.30;99.90
11704;DHT22;5908;51.354;7.458;2023-11-21T08:18:52;12.30;99.90
11704;DHT22;5908;51.354;7.458;2023-11-21T08:21:20;12.30;99.90
11704;DHT22;5908;51.354;7.458;2023-11-21T08:23:46;12.40;99.90
11704;DHT22;5908;51.354;7.458;2023-11-21T08:26:20;12.40;99.90
11704;DHT22;5908;51.354;7.458;2023-11-21T08:28:47;12.50;99.90
11704;DHT22;5908;51.354;7.458;2023-11-21T08:31:14;12.60;99.90
11704;DHT22;5908;51.354;7.458;2023-11-21T08:33:41;12.60;99.90
11704;DHT22;5908;51.354;7.458;2023-11-21T08:36:09;12.70;99.90
11704;DHT22;5908;51.354;7.458;2023-11-21T08:38:36;12.70;99.90
11704;DHT22;5908;51.354;7.458;2023-11-21T08:41:05;12.70;99.90
11704;DHT22;5908;51.354;7.458;2023-11-21T08:43:34;12.60;99.90
11704;DHT22;5908;51.354;7.458;2023-11-21T08:46:05;12.60;99.90
11704;DHT22;5908;51.354;7.458;2023-11-21T08:48:32;12.60;99.90
11704;DHT22;5908;51.354;7.458;2023-11-21T08:50:58;12.60;99.90
11704;DHT22;5908;51.354;7.458;2023-11-21T08:53:25;12.50;99.90
11704;DHT22;5908;51.354;7.458;2023-11-21T08:55:52;12.50;99.90
11704;DHT22;5908;51.354;7.458;2023-11-21T08:58:19;12.60;99.90
11704;DHT22;5908;51.354;7.458;2023-11-21T09:00:48;12.60;99.90
11704;DHT22;5908;51.354;7.458;2023-11-21T09:03:15;12.80;99.90
11704;DHT22;5908;51.354;7.458;2023-11-21T09:05:41;12.90;99.90
11704;DHT22;5908;51.354;7.458;2023-11-21T09:08:08;12.90;99.90
11704;DHT22;5908;51.354;7.458;2023-11-21T09:10:35;12.90;99.90
11704;DHT22;5908;51.354;7.458;2023-11-21T09:13:02;13.00;99.90
11704;DHT22;5908;51.354;7.458;2023-11-21T09:15:29;13.00;99.90
11704;DHT22;5908;51.354;7.458;2023-11-21T09:17:57;13.00;99.90
11704;DHT22;5908;51.354;7.458;2023-11-21T09:20:24;13.20;99.90
11704;DHT22;5908;51.354;7.458;2023-11-21T09:22:50;13.20;99.90
11704;DHT22;5908;51.354;7.458;2023-11-21T09:25:17;13.20;99.90
11704;DHT22;5908;51.354;7.458;2023-11-21T09:27:45;13.30;99.90
11704;DHT22;5908;51.354;7.458;2023-11-21T09:30:12;13.40;99.90
11704;DHT22;5908;51.354;7.458;2023-11-21T09:32:40;13.50;99.90
11704;DHT22;5908;51.354;7.458;2023-11-21T09:35:12;13.50;99.90
11704;DHT22;5908;51.354;7.458;2023-11-21T09:37:39;13.60;99.90
11704;DHT22;5908;51.354;7.458;2023-11-21T09:40:10;13.50;99.90
11704;DHT22;5908;51.354;7.458;2023-11-21T09:42:42;13.60;99.90
11704;DHT22;5908;51.354;7.458;2023-11-21T09:45:17;13.70;99.90
11704;DHT22;5908;51.354;7.458;2023-11-21T09:47:46;13.70;99.90
11704;DHT22;5908;51.354;7.458;2023-11-21T09:50:17;13.80;99.90
11704;DHT22;5908;51.354;7.458;2023-11-21T09:52:49;13.90;99.90
11704;DHT22;5908;51.354;7.458;2023-11-21T09:55:19;13.90;99.90
11704;DHT22;5908;51.354;7.458;2023-11-21T09:57:48;14.00;99.90
11704;DHT22;5908;51.354;7.458;2023-11-21T10:00:16;13.90;99.90
11704;DHT22;5908;51.354;7.458;2023-11-21T10:02:45;13.90;99.90
11704;DHT22;5908;51.354;7.458;2023-11-21T10:05:15;14.00;99.90
11704;DHT22;5908;51.354;7.458;2023-11-21T10:07:43;14.00;99.90
11704;DHT22;5908;51.354;7.458;2023-11-21T10:10:14;14.10;99.90
11704;DHT22;5908;51.354;7.458;2023-11-21T10:12:43;14.10;99.60
11704;DHT22;5908;51.354;7.458;2023-11-21T10:15:13;14.20;99.50
11704;DHT22;5908;51.354;7.458;2023-11-21T10:17:42;14.20;99.40
11704;DHT22;5908;51.354;7.458;2023-11-21T10:20:11;14.30;99.40
11704;DHT22;5908;51.354;7.458;2023-11-21T10:22:40;14.40;99.10
11704;DHT22;5908;51.354;7.458;2023-11-21T10:25:08;14.60;98.80
11704;DHT22;5908;51.354;7.458;2023-11-21T10:27:35;14.40;98.90
11704;DHT22;5908;51.354;7.458;2023-11-21T10:30:02;14.30;99.10
11704;DHT22;5908;51.354;7.458;2023-11-21T10:32:29;14.30;99.20
11704;DHT22;5908;51.354;7.458;2023-11-21T10:34:58;14.30;99.30
11704;DHT22;5908;51.354;7.458;2023-11-21T10:37:28;14.30;99.30
11704;DHT22;5908;51.354;7.458;2023-11-21T10:39:58;14.40;99.40
11704;DHT22;5908;51.354;7.458;2023-11-21T10:42:25;14.40;99.40
11704;DHT22;5908;51.354;7.458;2023-11-21T10:44:52;14.60;99.50
11704;DHT22;5908;51.354;7.458;2023-11-21T10:47:20;14.70;99.10
11704;DHT22;5908;51.354;7.458;2023-11-21T10:49:48;14.70;98.60
11704;DHT22;5908;51.354;7.458;2023-11-21T10:52:15;14.80;98.60
11704;DHT22;5908;51.354;7.458;2023-11-21T10:54:43;14.80;98.30
11704;DHT22;5908;51.354;7.458;2023-11-21T10:57:14;14.90;98.20
11704;DHT22;5908;51.354;7.458;2023-11-21T10:59:46;15.00;97.80
11704;DHT22;5908;51.354;7.458;2023-11-21T11:02:25;15.10;97.70
11704;DHT22;5908;51.354;7.458;2023-11-21T11:04:53;15.10;97.30
11704;DHT22;5908;51.354;7.458;2023-11-21T11:07:21;15.10;97.00
11704;DHT22;5908;51.354;7.458;2023-11-21T11:09:53;15.00;97.10
11704;DHT22;5908;51.354;7.458;2023-11-21T11:12:21;14.90;96.90
11704;DHT22;5908;51.354;7.458;2023-11-21T11:14:49;14.80;97.10
11704;DHT22;5908;51.354;7.458;2023-11-21T11:17:16;14.50;97.50
11704;DHT22;5908;51.354;7.458;2023-11-21T11:19:46;14.20;98.20
11704;DHT22;5908;51.354;7.458;2023-11-21T11:22:23;14.00;98.80
11704;DHT22;5908;51.354;7.458;2023-11-21T11:25:12;14.10;98.90
11704;DHT22;5908;51.354;7.458;2023-11-21T11:27:49;14.10;98.90
11704;DHT22;5908;51.354;7.458;2023-11-21T11:30:29;14.20;98.90
11704;DHT22;5908;51.354;7.458;2023-11-21T11:33:09;14.10;99.00
11704;DHT22;5908;51.354;7.458;2023-11-21T11:35:55;14.10;99.10
11704;DHT22;5908;51.354;7.458;2023-11-21T11:38:23;14.00;99.20
11704;DHT22;5908;51.354;7.458;2023-11-21T11:40:54;13.80;99.90
11704;DHT22;5908;51.354;7.458;2023-11-21T11:43:28;14.00;99.90
11704;DHT22;5908;51.354;7.458;2023-11-21T11:45:56;14.10;99.60
11704;DHT22;5908;51.354;7.458;2023-11-21T11:48:24;14.20;99.80
11704;DHT22;5908;51.354;7.458;2023-11-21T11:51:05;14.50;99.30
11704;DHT22;5908;51.354;7.458;2023-11-21T11:53:39;14.60;98.90
11704;DHT22;5908;51.354;7.458;2023-11-21T11:56:24;14.70;99.20
11704;DHT22;5908;51.354;7.458;2023-11-21T11:58:54;14.70;98.90
11704;DHT22;5908;51.354;7.458;2023-11-21T12:01:22;14.70;98.90
11704;DHT22;5908;51.354;7.458;2023-11-21T12:04:23;14.60;99.00
11704;DHT22;5908;51.354;7.458;2023-11-21T12:06:57;14.70;99.00
11704;DHT22;5908;51.354;7.458;2023-11-21T12:09:26;14.50;99.20
11704;DHT22;5908;51.354;7.458;2023-11-21T12:11:53;14.40;99.70
11704;DHT22;5908;51.354;7.458;2023-11-21T12:14:23;14.50;99.70
11704;DHT22;5908;51.354;7.458;2023-11-21T12:16:50;14.50;99.80
11704;DHT22;5908;51.354;7.458;2023-11-21T12:19:18;14.50;99.90
11704;DHT22;5908;51.354;7.458;2023-11-21T12:21:46;14.30;99.90
11704;DHT22;5908;51.354;7.458;2023-11-21T12:24:14;14.10;99.90
11704;DHT22;5908;51.354;7.458;2023-11-21T12:26:43;14.00;99.90
11704;DHT22;5908;51.354;7.458;2023-11-21T12:29:11;13.80;99.90
11704;DHT22;5908;51.354;7.458;2023-11-21T12:31:39;13.60;99.90
11704;DHT22;5908;51.354;7.458;2023-11-21T12:34:06;13.50;99.90
11704;DHT22;5908;51.354;7.458;2023-11-21T12:36:37;13.40;99.90
11704;DHT22;5908;51.354;7.458;2023-11-21T12:39:04;13.10;99.90
11704;DHT22;5908;51.354;7.458;2023-11-21T12:41:30;12.60;99.90
11704;DHT22;5908;51.354;7.458;2023-11-21T12:43:57;12.00;99.90
11704;DHT22;5908;51.354;7.458;2023-11-21T12:46:25;11.60;99.90
11704;DHT22;5908;51.354;7.458;2023-11-21T12:48:56;11.50;99.90
11704;DHT22;5908;51.354;7.458;2023-11-21T12:51:23;11.70;99.90
11704;DHT22;5908;51.354;7.458;2023-11-21T12:53:50;11.60;99.90
11704;DHT22;5908;51.354;7.458;2023-11-21T12:56:18;11.30;99.90
11704;DHT22;5908;51.354;7.458;2023-11-21T12:58:48;11.10;99.90
11704;DHT22;5908;51.354;7.458;2023-11-21T13:01:17;11.10;99.90
11704;DHT22;5908;51.354;7.458;2023-11-21T13:03:47;11.20;99.90
11704;DHT22;5908;51.354;7.458;2023-11-21T13:06:18;11.00;99.90
11704;DHT22;5908;51.354;7.458;2023-11-21T13:08:45;11.10;99.90
11704;DHT22;5908;51.354;7.458;2023-11-21T13:11:12;11.30;99.90
11704;DHT22;5908;51.354;7.458;2023-11-21T13:13:41;11.30;99.90
11704;DHT22;5908;51.354;7.458;2023-11-21T13:16:08;11.40;99.90
11704;DHT22;5908;51.354;7.458;2023-11-21T13:18:35;11.40;99.90
11704;DHT22;5908;51.354;7.458;2023-11-21T13:21:03;11.50;99.90
11704;DHT22;5908;51.354;7.458;2023-11-21T13:23:38;11.50;99.90
11704;DHT22;5908;51.354;7.458;2023-11-21T13:26:07;11.30;99.90
11704;DHT22;5908;51.354;7.458;2023-11-21T13:28:35;11.30;99.90
11704;DHT22;5908;51.354;7.458;2023-11-21T13:31:03;11.40;99.90
11704;DHT22;5908;51.354;7.458;2023-11-21T13:33:35;11.50;99.90
11704;DHT22;5908;51.354;7.458;2023-11-21T13:36:04;11.50;99.90
11704;DHT22;5908;51.354;7.458;2023-11-21T13:38:33;11.80;99.90
11704;DHT22;5908;51.354;7.458;2023-11-21T13:41:02;12.10;99.90
11704;DHT22;5908;51.354;7.458;2023-11-21T13:43:33;11.60;99.90
11704;DHT22;5908;51.354;7.458;2023-11-21T13:46:00;11.20;99.90
11704;DHT22;5908;51.354;7.458;2023-11-21T13:48:33;10.80;99.90
11704;DHT22;5908;51.354;7.458;2023-11-21T13:51:08;11.00;99.90
11704;DHT22;5908;51.354;7.458;2023-11-21T13:53:41;10.80;99.90
11704;DHT22;5908;51.354;7.458;2023-11-21T13:56:10;10.70;99.90
11704;DHT22;5908;51.354;7.458;2023-11-21T13:58:38;10.60;99.90
11704;DHT22;5908;51.354;7.458;2023-11-21T14:01:12;10.70;99.90
11704;DHT22;5908;51.354;7.458;2023-11-21T14:03:58;11.10;99.90
11704;DHT22;5908;51.354;7.458;2023-11-21T14:06:33;10.90;99.90
11704;DHT22;5908;51.354;7.458;2023-11-21T14:09:07;10.80;99.90
11704;DHT22;5908;51.354;7.458;2023-11-21T14:11:35;10.80;99.90
11704;DHT22;5908;51.354;7.458;2023-11-21T14:14:03;10.60;99.90
11704;DHT22;5908;51.354;7.458;2023-11-21T14:16:31;10.50;99.90
11704;DHT22;5908;51.354;7.458;2023-11-21T14:18:57;10.50;99.90
11704;DHT22;5908;51.354;7.458;2023-11-21T14:21:40;10.50;99.90
11704;DHT22;5908;51.354;7.458;2023-11-21T14:24:09;10.80;99.90
11704;DHT22;5908;51.354;7.458;2023-11-21T14:26:40;10.50;99.90
11704;DHT22;5908;51.354;7.458;2023-11-21T14:29:07;10.40;99.90
11704;DHT22;5908;51.354;7.458;2023-11-21T14:31:36;10.40;99.90
11704;DHT22;5908;51.354;7.458;2023-11-21T14:34:03;10.20;99.90
11704;DHT22;5908;51.354;7.458;2023-11-21T14:36:32;10.20;99.90
11704;DHT22;5908;51.354;7.458;2023-11-21T14:38:59;10.00;99.90
11704;DHT22;5908;51.354;7.458;2023-11-21T14:41:26;9.90;99.90
11704;DHT22;5908;51.354;7.458;2023-11-21T14:43:54;9.90;99.90
11704;DHT22;5908;51.354;7.458;2023-11-21T14:46:22;10.10;99.90
11704;DHT22;5908;51.354;7.458;2023-11-21T14:48:49;10.00;99.90
11704;DHT22;5908;51.354;7.458;2023-11-21T14:51:24;10.10;99.90
11704;DHT22;5908;51.354;7.458;2023-11-21T14:53:56;10.40;99.90
11704;DHT22;5908;51.354;7.458;2023-11-21T14:56:26;10.50;99.90
11704;DHT22;5908;51.354;7.458;2023-11-21T14:58:58;10.30;99.90
11704;DHT22;5908;51.354;7.458;2023-11-21T15:01:31;10.30;99.90
11704;DHT22;5908;51.354;7.458;2023-11-21T15:04:11;10.10;99.90
11704;DHT22;5908;51.354;7.458;2023-11-21T15:06:48;10.00;99.90
11704;DHT22;5908;51.354;7.458;2023-11-21T15:09:14;10.10;99.90
11704;DHT22;5908;51.354;7.458;2023-11-21T15:12:01;10.00;99.90
11704;DHT22;5908;51.354;7.458;2023-11-21T15:14:36;9.70;99.90
11704;DHT22;5908;51.354;7.458;2023-11-21T15:17:03;9.70;99.90
11704;DHT22;5908;51.354;7.458;2023-11-21T15:19:31;9.50;99.90
11704;DHT22;5908;51.354;7.458;2023-11-21T15:21:58;9.50;99.90
11704;DHT22;5908;51.354;7.458;2023-11-21T15:24:25;9.40;99.90
11704;DHT22;5908;51.354;7.458;2023-11-21T15:26:52;9.30;99.90
11704;DHT22;5908;51.354;7.458;2023-11-21T15:29:19;9.30;99.90
11704;DHT22;5908;51.354;7.458;2023-11-21T15:31:48;9.20;99.90
11704;DHT22;5908;51.354;7.458;2023-11-21T15:34:15;9.40;99.90
11704;DHT22;5908;51.354;7.458;2023-11-21T15:36:42;9.30;99.90
11704;DHT22;5908;51.354;7.458;2023-11-21T15:39:09;9.30;99.90
11704;DHT22;5908;51.354;7.458;2023-11-21T15:41:38;9.30;99.90
11704;DHT22;5908;51.354;7.458;2023-11-21T15:44:05;9.20;99.90
11704;DHT22;5908;51.354;7.458;2023-11-21T15:46:35;9.00;99.90
11704;DHT22;5908;51.354;7.458;2023-11-21T15:49:04;9.10;99.90
11704;DHT22;5908;51.354;7.458;2023-11-21T15:51:38;9.00;99.90
11704;DHT22;5908;51.354;7.458;2023-11-21T15:54:05;9.00;99.90
11704;DHT22;5908;51.354;7.458;2023-11-21T15:56:33;9.00;99.90